createdAt,value
2018-11-02T00:01:28.306Z,14.09
2018-11-02T00:03:57.236Z,14.12
2018-11-02T00:06:25.648Z,14.12
2018-11-02T00:08:53.938Z,14.12
2018-11-02T00:11:22.259Z,14.15
2018-11-02T00:13:50.592Z,14.14
2018-11-02T00:16:19.185Z,14.14
2018-11-02T00:18:47.512Z,14.16
2018-11-02T00:21:15.843Z,14.18
2018-11-02T00:23:44.192Z,14.20
2018-11-02T00:26:12.531Z,14.20
2018-11-02T00:28:40.277Z,14.23
2018-11-02T00:31:08.606Z,14.23
2018-11-02T00:33:37.522Z,14.23
2018-11-02T00:36:05.854Z,14.25
2018-11-02T00:38:34.188Z,14.27
2018-11-02T00:41:02.570Z,14.30
2018-11-02T00:43:31.130Z,14.32
2018-11-02T00:45:59.459Z,14.32
2018-11-02T00:48:27.208Z,14.33
2018-11-02T00:50:55.532Z,14.34
2018-11-02T00:53:23.859Z,14.32
2018-11-02T00:55:52.238Z,14.33
2018-11-02T00:58:21.143Z,14.33
2018-11-02T01:00:49.475Z,14.33
2018-11-02T01:03:17.245Z,14.33
2018-11-02T01:05:46.216Z,14.33
2018-11-02T01:08:14.568Z,14.32
2018-11-02T01:10:42.318Z,14.33
2018-11-02T01:13:11.254Z,14.34
2018-11-02T01:15:39.000Z,14.37
2018-11-02T01:18:07.920Z,14.40
2018-11-02T01:20:35.661Z,14.42
2018-11-02T01:23:03.996Z,14.44
2018-11-02T01:25:32.322Z,14.46
2018-11-02T01:28:01.241Z,14.46
2018-11-02T01:30:28.989Z,14.45
2018-11-02T01:32:57.911Z,14.46
2018-11-02T01:35:25.667Z,14.46
2018-11-02T01:37:54.583Z,14.47
2018-11-02T01:40:22.906Z,14.42
2018-11-02T01:42:51.238Z,14.43
2018-11-02T01:45:19.392Z,14.44
2018-11-02T01:47:47.730Z,14.40
2018-11-02T01:50:16.634Z,14.38
2018-11-02T01:52:44.405Z,14.36
2018-11-02T01:55:13.309Z,14.33
2018-11-02T01:57:41.058Z,14.33
2018-11-02T02:00:09.974Z,14.33
2018-11-02T02:02:38.310Z,14.33
2018-11-02T02:05:06.064Z,14.32
2018-11-02T02:07:34.396Z,14.34
2018-11-02T02:10:03.317Z,14.33
2018-11-02T02:12:31.070Z,14.33
2018-11-02T02:14:59.994Z,14.34
2018-11-02T02:17:27.740Z,14.35
2018-11-02T02:19:56.651Z,14.38
2018-11-02T02:22:24.989Z,14.41
2018-11-02T02:24:52.743Z,14.38
2018-11-02T02:27:21.065Z,14.35
2018-11-02T02:29:49.977Z,14.34
2018-11-02T02:32:17.724Z,14.32
2018-11-02T02:34:46.632Z,14.31
2018-11-02T02:37:14.962Z,14.30
2018-11-02T02:39:43.300Z,14.26
2018-11-02T02:42:12.451Z,14.24
2018-11-02T02:44:40.789Z,14.20
2018-11-02T02:47:09.114Z,14.16
2018-11-02T02:49:37.454Z,14.14
2018-11-02T02:52:05.769Z,14.10
2018-11-02T02:54:34.134Z,14.06
2018-11-02T02:57:02.491Z,14.02
2018-11-02T02:59:30.216Z,13.97
2018-11-02T03:01:58.552Z,13.95
2018-11-02T03:04:26.900Z,13.91
2018-11-02T03:06:55.827Z,13.86
2018-11-02T03:09:24.148Z,13.85
2018-11-02T03:11:52.483Z,13.85
2018-11-02T03:14:20.248Z,13.81
2018-11-02T03:16:49.281Z,13.77
2018-11-02T03:19:17.609Z,13.71
2018-11-02T03:21:45.941Z,13.65
2018-11-02T03:24:14.300Z,13.61
2018-11-02T03:26:42.620Z,13.57
2018-11-02T03:29:10.396Z,13.57
2018-11-02T03:31:39.311Z,13.56
2018-11-02T03:34:07.093Z,13.53
2018-11-02T03:36:35.400Z,13.54
2018-11-02T03:39:04.322Z,13.52
2018-11-02T03:41:32.650Z,13.50
2018-11-02T03:44:00.985Z,13.48
2018-11-02T03:46:28.757Z,13.47
2018-11-02T03:48:57.347Z,13.46
2018-11-02T03:51:25.677Z,13.43
2018-11-02T03:53:54.587Z,13.43
2018-11-02T03:56:22.914Z,13.44
2018-11-02T03:58:50.687Z,13.39
2018-11-02T04:01:19.600Z,13.40
2018-11-02T04:03:47.939Z,13.41
2018-11-02T04:06:16.262Z,13.36
2018-11-02T04:08:44.602Z,13.36
2018-11-02T04:11:12.368Z,13.34
2018-11-02T04:13:41.317Z,13.28
2018-11-02T04:16:09.614Z,13.25
2018-11-02T04:18:37.945Z,13.21
2018-11-02T04:21:05.705Z,13.18
2018-11-02T04:23:34.016Z,13.15
2018-11-02T04:26:02.939Z,13.10
2018-11-02T04:28:31.274Z,13.07
2018-11-02T04:30:59.118Z,13.04
2018-11-02T04:33:27.342Z,13.00
2018-11-02T04:35:56.263Z,12.98
2018-11-02T04:38:24.475Z,12.96
2018-11-02T04:40:52.944Z,12.95
2018-11-02T04:43:20.703Z,12.92
2018-11-02T04:45:49.609Z,12.89
2018-11-02T04:48:17.358Z,12.86
2018-11-02T04:50:46.310Z,12.86
2018-11-02T04:53:14.076Z,12.84
2018-11-02T04:55:42.396Z,12.84
2018-11-02T04:58:10.743Z,12.80
2018-11-02T05:00:39.669Z,12.79
2018-11-02T05:03:07.985Z,12.77
2018-11-02T05:05:36.320Z,12.75
2018-11-02T05:08:04.061Z,12.75
2018-11-02T05:10:32.402Z,12.74
2018-11-02T05:13:00.733Z,12.72
2018-11-02T05:15:29.069Z,12.69
2018-11-02T05:17:57.409Z,12.64
2018-11-02T05:20:26.328Z,12.60
2018-11-02T05:22:54.642Z,12.54
2018-11-02T05:25:22.980Z,12.51
2018-11-02T05:27:50.723Z,12.46
2018-11-02T05:30:19.631Z,12.43
2018-11-02T05:32:47.967Z,12.42
2018-11-02T05:35:16.296Z,12.42
2018-11-02T05:37:44.637Z,12.43
2018-11-02T05:40:12.973Z,12.39
2018-11-02T05:42:41.301Z,12.40
2018-11-02T05:45:09.630Z,12.38
2018-11-02T05:47:38.205Z,12.36
2018-11-02T05:50:06.528Z,12.32
2018-11-02T05:52:34.284Z,12.32
2018-11-02T05:55:02.629Z,12.28
2018-11-02T05:57:30.958Z,12.27
2018-11-02T05:59:59.305Z,12.25
2018-11-02T06:02:27.632Z,12.26
2018-11-02T06:04:55.974Z,12.25
2018-11-02T06:07:25.809Z,12.24
2018-11-02T06:09:53.554Z,12.26
2018-11-02T06:12:22.520Z,12.28
2018-11-02T06:14:50.238Z,12.30
2018-11-02T06:17:19.371Z,12.34
2018-11-02T06:19:47.142Z,12.38
2018-11-02T06:22:16.059Z,12.41
2018-11-02T06:24:44.400Z,12.45
2018-11-02T06:27:12.142Z,12.49
2018-11-02T06:29:40.533Z,12.56
2018-11-02T06:32:09.380Z,12.69
2018-11-02T06:34:37.128Z,12.77
2018-11-02T06:37:06.047Z,12.81
2018-11-02T06:39:33.792Z,12.83
2018-11-02T06:42:02.173Z,12.89
2018-11-02T06:44:30.453Z,13.03
2018-11-02T06:46:58.799Z,13.11
2018-11-02T06:49:27.688Z,13.13
2018-11-02T06:51:55.461Z,13.16
2018-11-02T06:54:23.761Z,13.22
2018-11-02T06:56:52.091Z,13.27
2018-11-02T06:59:21.061Z,13.29
2018-11-02T07:01:49.568Z,13.33
2018-11-02T07:04:17.909Z,13.37
2018-11-02T07:06:46.231Z,13.41
2018-11-02T07:09:13.971Z,13.43
2018-11-02T07:11:42.888Z,13.44
2018-11-02T07:14:10.633Z,13.45
2018-11-02T07:16:38.961Z,13.45
2018-11-02T07:19:07.863Z,13.47
2018-11-02T07:21:35.627Z,13.51
2018-11-02T07:24:03.931Z,13.56
2018-11-02T07:26:32.834Z,13.59
2018-11-02T07:29:01.175Z,13.61
2018-11-02T07:31:29.498Z,13.62
2018-11-02T07:33:57.525Z,13.59
2018-11-02T07:36:25.569Z,13.59
2018-11-02T07:38:53.898Z,13.59
2018-11-02T07:41:23.028Z,13.58
2018-11-02T07:43:51.150Z,13.59
2018-11-02T07:46:19.099Z,13.61
2018-11-02T07:48:47.201Z,13.61
2018-11-02T07:51:16.161Z,13.63
2018-11-02T07:53:44.483Z,13.63
2018-11-02T07:56:12.798Z,13.62
2018-11-02T07:58:41.118Z,13.60
2018-11-02T08:01:09.435Z,13.56
2018-11-02T08:03:37.177Z,13.54
2018-11-02T08:06:06.863Z,13.52
2018-11-02T08:08:34.609Z,13.54
2018-11-02T08:11:03.516Z,13.55
2018-11-02T08:13:31.842Z,13.58
2018-11-02T08:15:59.598Z,13.57
2018-11-02T08:18:27.922Z,13.59
2018-11-02T08:20:56.836Z,13.57
2018-11-02T08:23:25.202Z,13.60
2018-11-02T08:25:52.971Z,13.64
2018-11-02T08:28:21.871Z,13.71
2018-11-02T08:30:50.200Z,13.76
2018-11-02T08:33:18.544Z,13.77
2018-11-02T08:35:46.277Z,13.81
2018-11-02T08:38:15.185Z,13.87
2018-11-02T08:40:42.922Z,13.89
2018-11-02T08:43:11.260Z,13.91
2018-11-02T08:45:39.576Z,13.97
2018-11-02T08:48:07.894Z,14.06
2018-11-02T08:50:36.225Z,14.15
2018-11-02T08:53:05.162Z,14.22
2018-11-02T08:55:32.904Z,14.29
2018-11-02T08:58:02.186Z,14.32
2018-11-02T09:00:30.175Z,14.38
2018-11-02T09:02:57.920Z,14.41
2018-11-02T09:05:26.244Z,14.46
2018-11-02T09:07:54.571Z,14.47
2018-11-02T09:10:23.483Z,14.48
2018-11-02T09:12:51.662Z,14.56
2018-11-02T09:15:20.226Z,14.64
2018-11-02T09:17:48.591Z,14.72
2018-11-02T09:20:16.884Z,14.77
2018-11-02T09:22:45.212Z,14.83
2018-11-02T09:25:12.962Z,14.85
2018-11-02T09:27:41.906Z,14.88
2018-11-02T09:30:10.207Z,14.91
2018-11-02T09:32:38.529Z,14.95
2018-11-02T09:35:06.268Z,14.97
2018-11-02T09:37:35.177Z,15.02
2018-11-02T09:40:02.936Z,15.05
2018-11-02T09:42:31.931Z,15.10
2018-11-02T09:45:00.171Z,15.12
2018-11-02T09:47:28.834Z,15.15
2018-11-02T09:49:57.164Z,15.17
2018-11-02T09:52:25.487Z,15.23
2018-11-02T09:54:53.803Z,15.26
2018-11-02T09:57:22.125Z,15.29
2018-11-02T09:59:50.434Z,15.34
2018-11-02T10:02:18.769Z,15.41
2018-11-02T10:04:47.094Z,15.46
2018-11-02T10:07:15.656Z,15.52
2018-11-02T10:09:44.695Z,15.57
2018-11-02T10:12:13.575Z,15.58
2018-11-02T10:14:41.897Z,15.62
2018-11-02T10:17:09.629Z,15.66
2018-11-02T10:19:38.532Z,15.65
2018-11-02T10:22:06.860Z,15.63
2018-11-02T10:24:34.606Z,15.64
2018-11-02T10:27:03.539Z,15.67
2018-11-02T10:29:31.844Z,15.65
2018-11-02T10:31:59.592Z,15.64
2018-11-02T10:34:28.508Z,15.61
2018-11-02T10:36:56.835Z,15.56
2018-11-02T10:39:25.882Z,15.54
2018-11-02T10:41:54.216Z,15.57
2018-11-02T10:44:22.585Z,15.57
2018-11-02T10:46:51.847Z,15.58
2018-11-02T10:49:18.874Z,15.58
2018-11-02T10:51:47.735Z,15.58
2018-11-02T10:54:15.512Z,15.58
2018-11-02T10:56:43.836Z,15.61
2018-11-02T10:59:12.717Z,15.60
2018-11-02T11:01:45.038Z,15.62
2018-11-02T11:04:12.776Z,15.60
2018-11-02T11:06:41.679Z,15.63
2018-11-02T11:09:10.024Z,15.69
2018-11-02T11:11:37.855Z,15.73
2018-11-02T11:14:06.113Z,15.80
2018-11-02T11:16:35.039Z,15.85
2018-11-02T11:19:03.349Z,15.94
2018-11-02T11:21:31.724Z,16.02
2018-11-02T11:24:00.508Z,16.06
2018-11-02T11:26:28.609Z,16.09
2018-11-02T11:28:56.908Z,16.08
2018-11-02T11:31:25.227Z,16.11
2018-11-02T11:33:53.543Z,16.13
2018-11-02T11:36:21.869Z,16.12
2018-11-02T11:38:50.407Z,16.14
2018-11-02T11:41:19.325Z,16.15
2018-11-02T11:43:47.653Z,16.14
2018-11-02T11:46:15.400Z,16.12
2018-11-02T11:48:44.315Z,16.09
2018-11-02T11:51:13.591Z,16.01
2018-11-02T11:53:42.566Z,15.95
2018-11-02T11:56:11.244Z,15.89
2018-11-02T11:58:38.981Z,15.88
2018-11-02T12:01:07.310Z,15.91
2018-11-02T12:03:35.639Z,15.87
2018-11-02T12:06:04.544Z,15.84
2018-11-02T12:08:32.287Z,15.84
2018-11-02T12:11:01.181Z,15.82
2018-11-02T12:13:29.516Z,15.83
2018-11-02T12:15:57.323Z,15.85
2018-11-02T12:18:26.159Z,15.83
2018-11-02T12:20:53.903Z,15.81
2018-11-02T12:23:23.049Z,15.75
2018-11-02T12:25:50.756Z,15.70
2018-11-02T12:28:19.705Z,15.66
2018-11-02T12:30:47.971Z,15.61
2018-11-02T12:33:16.283Z,15.58
2018-11-02T12:35:44.031Z,15.56
2018-11-02T12:38:12.936Z,15.56
2018-11-02T12:40:41.317Z,15.57
2018-11-02T12:43:09.675Z,15.55
2018-11-02T12:45:37.393Z,15.55
2018-11-02T12:48:06.455Z,15.51
2018-11-02T12:50:34.748Z,15.41
2018-11-02T12:53:02.947Z,15.34
2018-11-02T12:55:31.273Z,15.32
2018-11-02T12:57:59.608Z,15.33
2018-11-02T13:00:27.935Z,15.32
2018-11-02T13:02:56.314Z,15.28
2018-11-02T13:05:24.592Z,15.22
2018-11-02T13:07:52.327Z,15.17
2018-11-02T13:10:20.652Z,15.14
2018-11-02T13:12:49.550Z,15.09
2018-11-02T13:15:17.290Z,15.05
2018-11-02T13:17:45.613Z,15.02
2018-11-02T13:20:14.548Z,14.97
2018-11-02T13:22:44.141Z,14.98
2018-11-02T13:25:11.607Z,14.99
2018-11-02T13:27:39.973Z,14.97
2018-11-02T13:30:08.280Z,14.96
2018-11-02T13:32:37.169Z,14.94
2018-11-02T13:35:05.499Z,14.92
2018-11-02T13:37:33.248Z,14.89
2018-11-02T13:40:02.432Z,14.87
2018-11-02T13:42:30.174Z,14.81
2018-11-02T13:44:59.439Z,14.76
2018-11-02T13:47:27.983Z,14.73
2018-11-02T13:49:56.078Z,14.70
2018-11-02T13:52:24.403Z,14.68
2018-11-02T13:54:52.376Z,14.65
2018-11-02T13:57:20.489Z,14.66
2018-11-02T13:59:49.422Z,14.64
2018-11-02T14:02:17.137Z,14.62
2018-11-02T14:04:46.051Z,14.59
2018-11-02T14:07:13.810Z,14.53
2018-11-02T14:09:42.725Z,14.50
2018-11-02T14:12:10.468Z,14.46
2018-11-02T14:14:40.615Z,14.42
2018-11-02T14:17:07.979Z,14.43
2018-11-02T14:19:36.323Z,14.39
2018-11-02T14:22:04.086Z,14.35
2018-11-02T14:24:32.404Z,14.34
2018-11-02T14:27:01.323Z,14.30
2018-11-02T14:29:29.676Z,14.28
2018-11-02T14:31:57.986Z,14.22
2018-11-02T14:34:25.737Z,14.15
2018-11-02T14:36:54.065Z,14.12
2018-11-02T14:39:22.398Z,14.08
2018-11-02T14:41:50.738Z,14.05
2018-11-02T14:44:19.649Z,14.02
2018-11-02T14:46:47.414Z,14.00
2018-11-02T14:49:16.320Z,13.97
2018-11-02T14:51:44.647Z,13.93
2018-11-02T14:54:12.406Z,13.88
2018-11-02T14:56:41.318Z,13.86
2018-11-02T14:59:09.574Z,13.82
2018-11-02T15:01:39.010Z,13.81
2018-11-02T15:04:06.763Z,13.79
2018-11-02T15:06:35.678Z,13.79
2018-11-02T15:09:03.436Z,13.77
2018-11-02T15:11:31.839Z,13.75
2018-11-02T15:14:01.079Z,13.73
2018-11-02T15:16:29.425Z,13.69
2018-11-02T15:18:57.767Z,13.64
2018-11-02T15:21:26.661Z,13.60
2018-11-02T15:23:54.409Z,13.57
2018-11-02T15:26:22.797Z,13.54
2018-11-02T15:28:51.655Z,13.52
2018-11-02T15:31:20.004Z,13.53
2018-11-02T15:33:48.333Z,13.53
2018-11-02T15:36:16.093Z,13.52
2018-11-02T15:38:44.541Z,13.50
2018-11-02T15:41:13.633Z,13.49
2018-11-02T15:43:41.976Z,13.47
2018-11-02T15:46:09.755Z,13.47
2018-11-02T15:48:38.059Z,13.46
2018-11-02T15:51:06.992Z,13.47
2018-11-02T15:53:35.330Z,13.46
2018-11-02T15:56:03.649Z,13.44
2018-11-02T15:58:31.984Z,13.44
2018-11-02T16:01:00.315Z,13.44
2018-11-02T16:03:28.664Z,13.44
2018-11-02T16:05:56.985Z,13.46
2018-11-02T16:08:25.318Z,13.46
2018-11-02T16:10:53.641Z,13.46
2018-11-02T16:13:22.773Z,13.44
2018-11-02T16:15:51.111Z,13.42
2018-11-02T16:18:19.442Z,13.40
2018-11-02T16:20:47.183Z,13.36
2018-11-02T16:23:16.106Z,13.31
2018-11-02T16:25:44.445Z,13.26
2018-11-02T16:28:12.789Z,13.19
2018-11-02T16:30:41.126Z,13.09
2018-11-02T16:33:09.481Z,13.03
2018-11-02T16:35:37.233Z,13.00
2018-11-02T16:38:06.382Z,12.93
2018-11-02T16:40:33.902Z,12.83
2018-11-02T16:43:02.825Z,12.78
2018-11-02T16:45:31.161Z,12.74
2018-11-02T16:47:58.976Z,12.70
2018-11-02T16:50:27.266Z,12.67
2018-11-02T16:52:56.150Z,12.65
2018-11-02T16:55:24.484Z,12.63
2018-11-02T16:57:52.943Z,12.62
2018-11-02T17:00:21.174Z,12.61
2018-11-02T17:02:49.516Z,12.61
2018-11-02T17:05:17.866Z,12.61
2018-11-02T17:07:46.227Z,12.58
2018-11-02T17:10:14.576Z,12.55
2018-11-02T17:12:43.205Z,12.53
2018-11-02T17:15:11.065Z,12.52
2018-11-02T17:17:39.877Z,12.50
2018-11-02T17:20:08.228Z,12.50
2018-11-02T17:22:36.794Z,12.49
2018-11-02T17:25:04.915Z,12.48
2018-11-02T17:27:33.266Z,12.47
2018-11-02T17:30:01.686Z,12.46
2018-11-02T17:32:29.441Z,12.44
2018-11-02T17:34:58.373Z,12.41
2018-11-02T17:37:26.715Z,12.40
2018-11-02T17:39:55.374Z,12.39
2018-11-02T17:42:23.734Z,12.39
2018-11-02T17:44:52.090Z,12.39
2018-11-02T17:47:19.860Z,12.40
2018-11-02T17:49:48.788Z,12.40
2018-11-02T17:52:17.134Z,12.41
2018-11-02T17:54:44.886Z,12.41
2018-11-02T17:57:13.800Z,12.40
2018-11-02T17:59:41.585Z,12.38
2018-11-02T18:02:10.519Z,12.39
2018-11-02T18:04:38.864Z,12.38
2018-11-02T18:07:07.219Z,12.38
2018-11-02T18:09:35.564Z,12.37
2018-11-02T18:12:03.956Z,12.35
2018-11-02T18:14:32.299Z,12.34
2018-11-02T18:17:00.591Z,12.32
2018-11-02T18:19:28.946Z,12.29
2018-11-02T18:21:57.336Z,12.26
2018-11-02T18:24:25.659Z,12.23
2018-11-02T18:26:53.966Z,12.20
2018-11-02T18:29:22.343Z,12.20
2018-11-02T18:31:50.906Z,12.18
2018-11-02T18:34:19.231Z,12.16
2018-11-02T18:36:47.594Z,12.14
2018-11-02T18:39:17.114Z,12.12
2018-11-02T18:41:44.909Z,12.09
2018-11-02T18:44:14.508Z,12.05
2018-11-02T18:46:42.298Z,12.01
2018-11-02T18:49:11.214Z,11.98
2018-11-02T18:51:39.566Z,11.98
2018-11-02T18:54:29.231Z,11.98
2018-11-02T18:56:53.167Z,11.96
2018-11-02T18:59:21.797Z,11.93
2018-11-02T19:01:50.229Z,11.91
2018-11-02T19:04:18.573Z,11.86
2018-11-02T19:06:46.333Z,11.81
2018-11-02T19:09:15.600Z,11.77
2018-11-02T19:11:44.309Z,11.74
2018-11-02T19:14:12.646Z,11.73
2018-11-02T19:16:40.430Z,11.74
2018-11-02T19:19:09.357Z,11.76
2018-11-02T19:21:37.897Z,11.77
2018-11-02T19:24:06.196Z,11.77
2018-11-02T19:26:34.549Z,11.77
2018-11-02T19:29:03.079Z,11.78
2018-11-02T19:31:30.829Z,11.77
2018-11-02T19:33:59.774Z,11.76
2018-11-02T19:36:28.363Z,11.75
2018-11-02T19:38:56.995Z,11.74
2018-11-02T19:41:24.737Z,11.73
2018-11-02T19:43:53.728Z,11.69
2018-11-02T19:46:22.069Z,11.65
2018-11-02T19:48:50.435Z,11.64
2018-11-02T19:51:21.958Z,11.63
2018-11-02T19:53:50.306Z,11.63
2018-11-02T19:56:18.064Z,11.62
2018-11-02T19:58:46.987Z,11.60
2018-11-02T20:01:15.359Z,11.59
2018-11-02T20:03:43.698Z,11.55
2018-11-02T20:06:12.045Z,11.55
2018-11-02T20:08:40.401Z,11.55
2018-11-02T20:11:08.859Z,11.54
2018-11-02T20:13:37.373Z,11.53
2018-11-02T20:16:05.813Z,11.50
2018-11-02T20:18:34.258Z,11.51
2018-11-02T20:21:02.844Z,11.51
2018-11-02T20:23:31.189Z,11.47
2018-11-02T20:25:59.001Z,11.46
2018-11-02T20:28:29.202Z,11.46
2018-11-02T20:30:57.882Z,11.43
2018-11-02T20:33:26.584Z,11.43
2018-11-02T20:35:54.950Z,11.44
2018-11-02T20:38:23.955Z,11.47
2018-11-02T20:40:52.119Z,11.48
2018-11-02T20:43:20.447Z,11.49
2018-11-02T20:45:48.828Z,11.50
2018-11-02T20:48:23.408Z,11.51
2018-11-02T20:50:51.192Z,11.52
2018-11-02T20:53:20.183Z,11.53
2018-11-02T20:55:48.819Z,11.53
2018-11-02T20:58:17.028Z,11.51
2018-11-02T21:00:46.105Z,11.51
2018-11-02T21:03:16.028Z,11.52
2018-11-02T21:05:44.501Z,11.51
2018-11-02T21:08:12.442Z,11.51
2018-11-02T21:10:41.637Z,11.50
2018-11-02T21:13:09.903Z,11.50
2018-11-02T21:15:38.844Z,11.50
2018-11-02T21:18:07.304Z,11.51
2018-11-02T21:20:35.079Z,11.50
2018-11-02T21:23:04.006Z,11.51
2018-11-02T21:25:32.354Z,11.50
2018-11-02T21:28:01.054Z,11.49
2018-11-02T21:30:29.527Z,11.47
2018-11-02T21:32:58.480Z,11.48
2018-11-02T21:35:26.780Z,11.49
2018-11-02T21:37:55.165Z,11.48
2018-11-02T21:40:24.929Z,11.49
2018-11-02T21:42:53.276Z,11.51
2018-11-02T21:45:21.625Z,11.50
2018-11-02T21:47:50.552Z,11.52
2018-11-02T21:50:18.394Z,11.53
2018-11-02T21:52:47.832Z,11.46
2018-11-02T21:55:17.402Z,11.42
2018-11-02T21:57:44.832Z,11.36
2018-11-02T22:00:13.370Z,11.32
2018-11-02T22:02:41.123Z,11.29
2018-11-02T22:05:10.038Z,11.26
2018-11-02T22:07:38.466Z,11.25
2018-11-02T22:10:07.146Z,11.23
2018-11-02T22:12:35.647Z,11.22
2018-11-02T22:15:04.003Z,11.23
2018-11-02T22:17:31.758Z,11.24
2018-11-02T22:20:00.671Z,11.24
2018-11-02T22:22:29.073Z,11.27
2018-11-02T22:24:57.398Z,11.29
2018-11-02T22:27:26.017Z,11.33
2018-11-02T22:29:54.341Z,11.35
2018-11-02T22:32:22.091Z,11.35
2018-11-02T22:34:51.357Z,11.35
2018-11-02T22:37:19.206Z,11.35
2018-11-02T22:39:48.018Z,11.37
2018-11-02T22:42:15.757Z,11.39
2018-11-02T22:44:44.086Z,11.41
2018-11-02T22:47:12.418Z,11.44
2018-11-02T22:49:41.334Z,11.45
2018-11-02T22:52:09.077Z,11.46
2018-11-02T22:54:37.414Z,11.44
2018-11-02T22:57:05.742Z,11.43
2018-11-02T22:59:34.672Z,11.40
2018-11-02T23:02:03.008Z,11.41
2018-11-02T23:04:31.341Z,11.42
2018-11-02T23:06:59.606Z,11.45
2018-11-02T23:09:28.007Z,11.49
2018-11-02T23:11:56.333Z,11.52
2018-11-02T23:14:24.113Z,11.53
2018-11-02T23:16:52.979Z,11.55
2018-11-02T23:19:20.751Z,11.54
2018-11-02T23:21:49.656Z,11.56
2018-11-02T23:24:17.391Z,11.57
2018-11-02T23:26:45.716Z,11.58
2018-11-02T23:29:14.627Z,11.59
2018-11-02T23:31:42.958Z,11.61
2018-11-02T23:34:10.702Z,11.63
2018-11-02T23:36:39.031Z,11.67
2018-11-02T23:39:08.150Z,11.67
2018-11-02T23:41:36.506Z,11.63
2018-11-02T23:44:05.900Z,11.64
2018-11-02T23:46:34.229Z,11.66
2018-11-02T23:49:02.599Z,11.68
2018-11-02T23:51:30.907Z,11.71
2018-11-02T23:53:59.238Z,11.72
2018-11-02T23:56:27.560Z,11.73
2018-11-02T23:58:55.312Z,11.75
